createdAt,value
2018-10-03T00:00:54.470Z,0.00
2018-10-03T00:01:54.530Z,0.00
2018-10-03T00:02:54.589Z,0.00
2018-10-03T00:03:54.648Z,0.00
2018-10-03T00:04:54.708Z,0.00
2018-10-03T00:05:54.766Z,0.00
2018-10-03T00:06:54.825Z,0.00
2018-10-03T00:07:54.885Z,0.00
2018-10-03T00:08:54.949Z,0.00
2018-10-03T00:09:55.003Z,0.00
2018-10-03T00:10:55.063Z,0.00
2018-10-03T00:11:55.122Z,0.00
2018-10-03T00:12:55.182Z,0.00
2018-10-03T00:13:55.240Z,0.00
2018-10-03T00:14:55.300Z,0.00
2018-10-03T00:15:55.360Z,0.00
2018-10-03T00:16:55.420Z,0.00
2018-10-03T00:17:55.477Z,0.00
2018-10-03T00:18:55.539Z,0.00
2018-10-03T00:19:55.597Z,0.00
2018-10-03T00:20:55.657Z,0.00
2018-10-03T00:21:55.715Z,0.00
2018-10-03T00:22:55.778Z,0.00
2018-10-03T00:23:55.834Z,0.00
2018-10-03T00:24:55.894Z,0.00
2018-10-03T00:25:55.953Z,0.00
2018-10-03T00:26:56.011Z,0.00
2018-10-03T00:27:56.071Z,0.00
2018-10-03T00:28:56.132Z,0.00
2018-10-03T00:29:56.190Z,0.00
2018-10-03T00:30:56.251Z,0.00
2018-10-03T00:31:56.309Z,0.00
2018-10-03T00:32:56.368Z,0.00
2018-10-03T00:33:56.425Z,0.00
2018-10-03T00:34:56.487Z,0.00
2018-10-03T00:35:56.548Z,0.00
2018-10-03T00:36:56.606Z,0.00
2018-10-03T00:37:56.664Z,0.00
2018-10-03T00:38:56.724Z,0.00
2018-10-03T00:39:56.785Z,0.00
2018-10-03T00:40:56.843Z,0.00
2018-10-03T00:41:56.901Z,0.00
2018-10-03T00:42:56.961Z,0.00
2018-10-03T00:43:57.022Z,0.00
2018-10-03T00:44:57.079Z,0.00
2018-10-03T00:45:57.138Z,0.00
2018-10-03T00:46:57.198Z,0.00
2018-10-03T00:47:57.258Z,0.00
2018-10-03T00:48:57.318Z,0.00
2018-10-03T00:49:57.376Z,0.00
2018-10-03T00:50:57.435Z,0.00
2018-10-03T00:51:57.496Z,0.00
2018-10-03T00:52:57.555Z,0.00
2018-10-03T00:53:57.613Z,0.00
2018-10-03T00:54:57.673Z,0.00
2018-10-03T00:55:57.734Z,0.00
2018-10-03T00:56:57.792Z,0.00
2018-10-03T00:57:57.851Z,0.00
2018-10-03T00:58:57.913Z,0.00
2018-10-03T00:59:57.970Z,0.00
2018-10-03T01:00:58.035Z,0.00
2018-10-03T01:01:58.089Z,0.00
2018-10-03T01:02:58.149Z,0.00
2018-10-03T01:03:58.208Z,0.00
2018-10-03T01:04:58.268Z,0.00
2018-10-03T01:05:58.331Z,0.00
2018-10-03T01:06:58.387Z,0.00
2018-10-03T01:07:58.448Z,0.00
2018-10-03T01:08:58.506Z,0.00
2018-10-03T01:09:58.566Z,0.00
2018-10-03T01:10:58.624Z,0.00
2018-10-03T01:11:58.686Z,0.00
2018-10-03T01:12:58.744Z,0.00
2018-10-03T01:13:58.802Z,0.00
2018-10-03T01:14:58.862Z,0.00
2018-10-03T01:15:58.921Z,0.00
2018-10-03T01:16:58.981Z,0.00
2018-10-03T01:17:59.040Z,0.00
2018-10-03T01:18:59.100Z,0.00
2018-10-03T01:19:59.159Z,0.00
2018-10-03T01:20:59.223Z,0.00
2018-10-03T01:21:59.278Z,0.00
2018-10-03T01:22:59.337Z,0.00
2018-10-03T01:23:59.398Z,0.00
2018-10-03T01:24:59.458Z,0.00
2018-10-03T01:25:59.515Z,0.00
2018-10-03T01:26:59.576Z,0.00
2018-10-03T01:27:59.635Z,0.00
2018-10-03T01:28:59.695Z,0.00
2018-10-03T01:29:59.753Z,0.00
2018-10-03T01:30:59.813Z,0.00
2018-10-03T01:31:59.874Z,0.00
2018-10-03T01:32:59.933Z,0.00
2018-10-03T01:33:59.992Z,0.00
2018-10-03T01:35:00.051Z,0.00
2018-10-03T01:36:00.111Z,0.00
2018-10-03T01:37:00.170Z,0.00
2018-10-03T01:38:00.229Z,0.00
2018-10-03T01:39:00.289Z,0.00
2018-10-03T01:40:00.348Z,0.00
2018-10-03T01:41:00.411Z,0.00
2018-10-03T01:42:00.469Z,0.00
2018-10-03T01:43:00.526Z,0.00
2018-10-03T01:44:00.586Z,0.00
2018-10-03T01:45:00.645Z,0.00
2018-10-03T01:46:00.706Z,0.00
2018-10-03T01:47:00.764Z,0.00
2018-10-03T01:48:00.824Z,0.00
2018-10-03T01:49:00.884Z,0.00
2018-10-03T01:50:00.942Z,0.00
2018-10-03T01:51:01.003Z,0.00
2018-10-03T01:52:01.061Z,0.00
2018-10-03T01:53:01.122Z,0.00
2018-10-03T01:54:01.180Z,0.00
2018-10-03T01:55:01.240Z,0.00
2018-10-03T01:56:01.301Z,0.00
2018-10-03T01:57:01.360Z,0.00
2018-10-03T01:58:01.419Z,0.00
2018-10-03T01:59:01.479Z,0.00
2018-10-03T02:00:01.538Z,0.00
2018-10-03T02:01:01.598Z,0.00
2018-10-03T02:02:01.656Z,0.00
2018-10-03T02:03:01.715Z,0.00
2018-10-03T02:04:01.776Z,0.00
2018-10-03T02:05:01.835Z,0.00
2018-10-03T02:06:01.894Z,0.00
2018-10-03T02:07:01.955Z,0.00
2018-10-03T02:08:02.013Z,0.00
2018-10-03T02:09:02.073Z,0.00
2018-10-03T02:10:02.133Z,0.00
2018-10-03T02:11:02.191Z,0.00
2018-10-03T02:12:02.250Z,0.00
2018-10-03T02:13:02.310Z,0.00
2018-10-03T02:14:02.368Z,0.00
2018-10-03T02:15:02.429Z,0.00
2018-10-03T02:16:02.488Z,0.00
2018-10-03T02:17:02.572Z,0.00
2018-10-03T02:18:02.605Z,0.00
2018-10-03T02:19:02.666Z,0.00
2018-10-03T02:20:02.726Z,0.00
2018-10-03T02:21:02.797Z,0.00
2018-10-03T02:22:02.844Z,0.00
2018-10-03T02:23:02.905Z,0.00
2018-10-03T02:24:02.963Z,0.00
2018-10-03T02:25:03.023Z,0.00
2018-10-03T02:26:03.082Z,0.00
2018-10-03T02:27:03.141Z,0.00
2018-10-03T02:28:03.200Z,0.00
2018-10-03T02:29:03.265Z,0.00
2018-10-03T02:30:03.319Z,0.00
2018-10-03T02:31:03.379Z,0.00
2018-10-03T02:32:03.444Z,0.00
2018-10-03T02:33:03.498Z,0.00
2018-10-03T02:34:03.558Z,0.00
2018-10-03T02:35:03.616Z,0.00
2018-10-03T02:36:03.676Z,0.00
2018-10-03T02:37:03.735Z,0.00
2018-10-03T02:38:03.794Z,0.00
2018-10-03T02:39:03.855Z,0.00
2018-10-03T02:40:03.913Z,0.00
2018-10-03T02:41:03.972Z,0.00
2018-10-03T02:42:04.031Z,0.00
2018-10-03T02:43:04.093Z,0.00
2018-10-03T02:44:04.151Z,0.00
2018-10-03T02:45:04.210Z,0.00
2018-10-03T02:46:04.275Z,0.00
2018-10-03T02:47:04.328Z,0.00
2018-10-03T02:48:04.388Z,0.00
2018-10-03T02:49:04.447Z,0.00
2018-10-03T02:50:04.506Z,0.00
2018-10-03T02:51:04.566Z,0.00
2018-10-03T02:52:04.625Z,0.00
2018-10-03T02:53:04.686Z,0.00
2018-10-03T02:54:04.745Z,0.00
2018-10-03T02:55:04.801Z,0.00
2018-10-03T02:56:04.862Z,0.00
2018-10-03T02:57:04.921Z,0.00
2018-10-03T02:58:04.985Z,0.00
2018-10-03T02:59:05.040Z,0.00
2018-10-03T03:00:05.103Z,0.00
2018-10-03T03:01:05.159Z,0.00
2018-10-03T03:02:05.217Z,0.00
2018-10-03T03:03:05.277Z,0.00
2018-10-03T03:04:05.336Z,0.00
2018-10-03T03:05:05.396Z,0.00
2018-10-03T03:06:05.454Z,0.00
2018-10-03T03:07:05.515Z,0.00
2018-10-03T03:08:05.571Z,0.00
2018-10-03T03:09:05.660Z,0.00
2018-10-03T03:10:05.690Z,0.00
2018-10-03T03:11:05.751Z,0.00
2018-10-03T03:12:05.808Z,0.00
2018-10-03T03:13:05.869Z,0.00
2018-10-03T03:14:05.927Z,0.00
2018-10-03T03:15:05.986Z,0.00
2018-10-03T03:16:06.045Z,0.00
2018-10-03T03:17:06.128Z,0.00
2018-10-03T03:18:06.163Z,0.00
2018-10-03T03:19:06.224Z,0.00
2018-10-03T03:20:06.281Z,0.00
2018-10-03T03:21:06.352Z,0.00
2018-10-03T03:22:06.656Z,0.00
2018-10-03T03:23:06.475Z,0.00
2018-10-03T03:24:06.519Z,0.00
2018-10-03T03:25:06.577Z,0.00
2018-10-03T03:26:06.636Z,0.00
2018-10-03T03:27:06.845Z,0.00
2018-10-03T03:28:06.755Z,0.00
2018-10-03T03:29:06.814Z,0.00
2018-10-03T03:30:06.873Z,0.00
2018-10-03T03:31:06.937Z,0.00
2018-10-03T03:32:07.000Z,0.00
2018-10-03T03:33:07.049Z,0.00
2018-10-03T03:34:07.106Z,0.00
2018-10-03T03:35:07.168Z,0.00
2018-10-03T03:36:07.225Z,0.00
2018-10-03T03:37:07.379Z,0.00
2018-10-03T03:38:07.382Z,0.00
2018-10-03T03:39:07.435Z,0.00
2018-10-03T03:40:07.492Z,0.00
2018-10-03T03:41:07.564Z,0.00
2018-10-03T03:42:07.669Z,0.00
2018-10-03T03:43:07.674Z,0.00
2018-10-03T03:44:07.730Z,0.00
2018-10-03T03:45:07.757Z,0.00
2018-10-03T03:46:07.849Z,0.00
2018-10-03T03:47:07.983Z,0.00
2018-10-03T03:48:07.976Z,0.00
2018-10-03T03:49:08.032Z,0.00
2018-10-03T03:50:08.049Z,0.00
2018-10-03T03:51:08.154Z,0.00
2018-10-03T03:52:08.261Z,0.00
2018-10-03T03:53:08.262Z,0.00
2018-10-03T03:54:08.319Z,0.00
2018-10-03T03:55:08.344Z,0.00
2018-10-03T03:56:08.460Z,0.00
2018-10-03T03:57:08.463Z,0.00
2018-10-03T03:58:08.520Z,0.00
2018-10-03T03:59:08.580Z,0.00
2018-10-03T04:00:08.639Z,0.00
2018-10-03T04:01:08.705Z,0.00
2018-10-03T04:02:08.756Z,0.00
2018-10-03T04:03:08.816Z,0.00
2018-10-03T04:04:08.875Z,0.00
2018-10-03T04:05:08.932Z,0.00
2018-10-03T04:06:08.992Z,0.00
2018-10-03T04:07:09.051Z,0.00
2018-10-03T04:08:09.109Z,0.00
2018-10-03T04:09:09.171Z,0.00
2018-10-03T04:10:09.227Z,0.00
2018-10-03T04:11:09.286Z,0.00
2018-10-03T04:12:09.348Z,0.00
2018-10-03T04:13:09.404Z,0.00
2018-10-03T04:14:09.462Z,0.00
2018-10-03T04:15:09.520Z,0.00
2018-10-03T04:16:09.583Z,0.00
2018-10-03T04:17:09.639Z,0.00
2018-10-03T04:18:09.698Z,0.00
2018-10-03T04:19:09.756Z,0.00
2018-10-03T04:20:09.818Z,0.00
2018-10-03T04:21:09.874Z,0.00
2018-10-03T04:22:09.934Z,0.00
2018-10-03T04:23:09.993Z,0.00
2018-10-03T04:24:10.051Z,0.00
2018-10-03T04:25:10.110Z,0.00
2018-10-03T04:26:10.168Z,0.00
2018-10-03T04:27:10.228Z,0.00
2018-10-03T04:28:10.285Z,0.00
2018-10-03T04:29:10.344Z,0.00
2018-10-03T04:30:10.402Z,0.00
2018-10-03T04:31:10.461Z,0.00
2018-10-03T04:32:10.521Z,0.00
2018-10-03T04:33:10.579Z,0.00
2018-10-03T04:34:10.638Z,0.00
2018-10-03T04:35:10.704Z,0.00
2018-10-03T04:36:10.756Z,0.00
2018-10-03T04:37:10.815Z,0.00
2018-10-03T04:38:10.872Z,0.00
2018-10-03T04:39:10.934Z,0.00
2018-10-03T04:40:10.991Z,0.00
2018-10-03T04:41:11.051Z,0.00
2018-10-03T04:42:11.127Z,0.00
2018-10-03T04:43:11.202Z,0.00
2018-10-03T04:44:11.226Z,0.00
2018-10-03T04:45:11.284Z,0.00
2018-10-03T04:46:11.368Z,0.00
2018-10-03T04:47:11.709Z,0.00
2018-10-03T04:48:11.732Z,0.00
2018-10-03T04:49:11.936Z,0.00
2018-10-03T04:50:11.588Z,0.00
2018-10-03T04:51:11.644Z,0.00
2018-10-03T04:52:12.064Z,0.00
2018-10-03T04:53:11.753Z,0.00
2018-10-03T04:54:11.811Z,0.00
2018-10-03T04:55:11.870Z,0.00
2018-10-03T04:56:11.928Z,0.00
2018-10-03T04:57:11.989Z,0.00
2018-10-03T04:58:12.046Z,0.00
2018-10-03T04:59:12.103Z,0.00
2018-10-03T05:00:12.164Z,0.00
2018-10-03T05:01:12.222Z,0.00
2018-10-03T05:02:12.281Z,0.00
2018-10-03T05:03:12.338Z,0.00
2018-10-03T05:04:12.397Z,0.00
2018-10-03T05:05:12.456Z,4.00
2018-10-03T05:06:12.515Z,4.00
2018-10-03T05:07:12.574Z,0.00
2018-10-03T05:08:12.631Z,4.00
2018-10-03T05:09:12.694Z,4.00
2018-10-03T05:10:12.748Z,8.00
2018-10-03T05:11:12.876Z,4.00
2018-10-03T05:12:12.867Z,8.00
2018-10-03T05:13:12.924Z,8.00
2018-10-03T05:14:12.981Z,8.00
2018-10-03T05:15:13.040Z,12.00
2018-10-03T05:16:13.098Z,16.00
2018-10-03T05:17:13.157Z,16.00
2018-10-03T05:18:13.218Z,24.00
2018-10-03T05:19:13.273Z,24.00
2018-10-03T05:20:13.334Z,32.00
2018-10-03T05:21:13.390Z,36.00
2018-10-03T05:22:13.448Z,44.00
2018-10-03T05:23:13.506Z,52.00
2018-10-03T05:24:13.566Z,56.00
2018-10-03T05:25:13.624Z,64.00
2018-10-03T05:26:13.681Z,72.00
2018-10-03T05:27:13.741Z,80.00
2018-10-03T05:28:13.799Z,92.00
2018-10-03T05:29:13.857Z,100.00
2018-10-03T05:30:13.915Z,112.00
2018-10-03T05:31:13.974Z,120.00
2018-10-03T05:32:14.032Z,136.00
2018-10-03T05:33:14.143Z,148.00
2018-10-03T05:34:14.147Z,156.00
2018-10-03T05:35:14.207Z,172.00
2018-10-03T05:36:14.265Z,180.00
2018-10-03T05:37:14.325Z,200.00
2018-10-03T05:38:14.384Z,216.00
2018-10-03T05:39:14.440Z,236.00
2018-10-03T05:40:14.498Z,252.00
2018-10-03T05:41:14.557Z,276.00
2018-10-03T05:42:14.613Z,300.00
2018-10-03T05:43:14.671Z,324.00
2018-10-03T05:44:14.779Z,352.00
2018-10-03T05:45:14.789Z,380.00
2018-10-03T05:46:14.847Z,412.00
2018-10-03T05:47:14.906Z,456.00
2018-10-03T05:48:15.023Z,492.00
2018-10-03T05:49:15.024Z,516.00
2018-10-03T05:50:15.079Z,548.00
2018-10-03T05:51:15.140Z,576.00
2018-10-03T05:52:15.195Z,612.00
2018-10-03T05:53:15.257Z,652.00
2018-10-03T05:54:15.321Z,656.00
2018-10-03T05:55:15.371Z,672.00
2018-10-03T05:56:15.430Z,692.00
2018-10-03T05:57:15.487Z,724.00
2018-10-03T05:58:15.545Z,688.00
2018-10-03T05:59:15.603Z,700.00
2018-10-03T06:00:15.662Z,764.00
2018-10-03T06:01:15.719Z,872.00
2018-10-03T06:02:15.778Z,924.00
2018-10-03T06:03:15.835Z,936.00
2018-10-03T06:04:15.895Z,1008.00
2018-10-03T06:05:15.953Z,1048.00
2018-10-03T06:06:16.010Z,1132.00
2018-10-03T06:07:16.075Z,1260.00
2018-10-03T06:08:16.128Z,1288.00
2018-10-03T06:09:16.186Z,1288.00
2018-10-03T06:10:16.244Z,1368.00
2018-10-03T06:11:58.748Z,1496.00
2018-10-03T06:12:58.798Z,1432.00
2018-10-03T06:13:58.857Z,1316.00
2018-10-03T06:14:58.916Z,1244.00
2018-10-03T06:15:58.973Z,1424.00
2018-10-03T06:16:59.033Z,1584.00
2018-10-03T06:17:59.090Z,1488.00
2018-10-03T06:18:59.148Z,1496.00
2018-10-03T06:19:59.205Z,1600.00
2018-10-03T06:20:59.264Z,1748.00
2018-10-03T06:21:59.323Z,1900.00
2018-10-03T06:22:59.381Z,1972.00
2018-10-03T06:23:59.440Z,1912.00
2018-10-03T06:24:59.498Z,1904.00
2018-10-03T06:25:59.555Z,2240.00
2018-10-03T06:26:59.616Z,2408.00
2018-10-03T06:27:59.805Z,2372.00
2018-10-03T06:28:59.732Z,2604.00
2018-10-03T06:29:59.790Z,2816.00
2018-10-03T06:30:59.853Z,2912.00
2018-10-03T06:31:59.908Z,2912.00
2018-10-03T06:32:59.965Z,2632.00
2018-10-03T06:34:00.029Z,2388.00
2018-10-03T06:35:00.088Z,2300.00
2018-10-03T06:36:00.143Z,2276.00
2018-10-03T06:37:00.199Z,2596.00
2018-10-03T06:38:00.260Z,2640.00
2018-10-03T06:39:00.317Z,2728.00
2018-10-03T06:40:00.376Z,2716.00
2018-10-03T06:41:00.434Z,3004.00
2018-10-03T06:42:00.492Z,3404.00
2018-10-03T06:43:00.552Z,3468.00
2018-10-03T06:44:00.610Z,3252.00
2018-10-03T06:45:00.676Z,3012.00
2018-10-03T06:46:00.727Z,3180.00
2018-10-03T06:47:00.786Z,3056.00
2018-10-03T06:48:00.844Z,2856.00
2018-10-03T06:49:00.904Z,3196.00
2018-10-03T06:50:00.962Z,3472.00
2018-10-03T06:51:01.022Z,3588.00
2018-10-03T06:52:01.079Z,3780.00
2018-10-03T06:53:01.139Z,4036.00
2018-10-03T06:54:01.198Z,4248.00
2018-10-03T06:55:01.258Z,4380.00
2018-10-03T06:56:01.316Z,4104.00
2018-10-03T06:57:01.420Z,3952.00
2018-10-03T06:58:01.435Z,3936.00
2018-10-03T06:59:01.496Z,3900.00
2018-10-03T07:00:01.587Z,3844.00
2018-10-03T07:01:01.612Z,3780.00
2018-10-03T07:02:01.677Z,3716.00
2018-10-03T07:03:01.731Z,3664.00
2018-10-03T07:04:01.788Z,3612.00
2018-10-03T07:05:01.847Z,3556.00
2018-10-03T07:06:01.905Z,3500.00
2018-10-03T07:07:01.965Z,3476.00
2018-10-03T07:08:02.024Z,3484.00
2018-10-03T07:09:02.082Z,3484.00
2018-10-03T07:10:02.141Z,3496.00
2018-10-03T07:11:02.200Z,3548.00
2018-10-03T07:12:02.258Z,3600.00
2018-10-03T07:13:02.331Z,3564.00
2018-10-03T07:14:02.377Z,3516.00
2018-10-03T07:15:02.439Z,3532.00
2018-10-03T07:16:02.494Z,3528.00
2018-10-03T07:17:02.571Z,3572.00
2018-10-03T07:18:02.613Z,3504.00
2018-10-03T07:19:02.672Z,3472.00
2018-10-03T07:20:02.795Z,3484.00
2018-10-03T07:21:02.798Z,3568.00
2018-10-03T07:22:02.849Z,3656.00
2018-10-03T07:23:02.908Z,3748.00
2018-10-03T07:24:02.983Z,3860.00
2018-10-03T07:25:03.025Z,3988.00
2018-10-03T07:26:03.109Z,4052.00
2018-10-03T07:27:03.145Z,4108.00
2018-10-03T07:28:03.204Z,4148.00
2018-10-03T07:29:03.263Z,4164.00
2018-10-03T07:30:03.338Z,4224.00
2018-10-03T07:31:03.383Z,4296.00
2018-10-03T07:32:03.440Z,4264.00
2018-10-03T07:33:03.499Z,4308.00
2018-10-03T07:34:03.559Z,4356.00
2018-10-03T07:35:03.618Z,4440.00
2018-10-03T07:36:03.678Z,4632.00
2018-10-03T07:37:03.737Z,5120.00
2018-10-03T07:38:03.795Z,5864.00
2018-10-03T07:39:03.855Z,6688.00
2018-10-03T07:40:03.913Z,7340.00
2018-10-03T07:41:03.974Z,7344.00
2018-10-03T07:42:04.034Z,6736.00
2018-10-03T07:43:04.093Z,6156.00
2018-10-03T07:44:04.186Z,6020.00
2018-10-03T07:45:04.213Z,6284.00
2018-10-03T07:46:04.271Z,6164.00
2018-10-03T07:47:04.333Z,6588.00
2018-10-03T07:48:04.396Z,7284.00
2018-10-03T07:49:04.449Z,7780.00
2018-10-03T07:50:04.509Z,7140.00
2018-10-03T07:51:04.568Z,6340.00
2018-10-03T07:52:04.631Z,5684.00
2018-10-03T07:53:04.687Z,5412.00
2018-10-03T07:54:04.748Z,5152.00
2018-10-03T07:55:04.808Z,5688.00
2018-10-03T07:56:04.871Z,5768.00
2018-10-03T07:57:04.929Z,5300.00
2018-10-03T07:58:04.987Z,6336.00
2018-10-03T07:59:05.066Z,6736.00
2018-10-03T08:00:05.105Z,6348.00
2018-10-03T08:01:05.165Z,6204.00
2018-10-03T08:02:05.244Z,6360.00
2018-10-03T08:03:05.303Z,6716.00
2018-10-03T08:04:05.344Z,6780.00
2018-10-03T08:05:05.403Z,6864.00
2018-10-03T08:06:05.463Z,6856.00
2018-10-03T08:07:05.525Z,6900.00
2018-10-03T08:08:05.583Z,6044.00
2018-10-03T08:09:05.645Z,6224.00
2018-10-03T08:10:05.797Z,6528.00
2018-10-03T08:11:05.763Z,7752.00
2018-10-03T08:12:05.822Z,8888.00
2018-10-03T08:13:05.883Z,8816.00
2018-10-03T08:14:05.943Z,8796.00
2018-10-03T08:15:06.003Z,7908.00
2018-10-03T08:16:06.061Z,7172.00
2018-10-03T08:17:06.124Z,7904.00
2018-10-03T08:18:06.182Z,8628.00
2018-10-03T08:19:06.245Z,7936.00
2018-10-03T08:20:06.301Z,7484.00
2018-10-03T08:21:06.362Z,7692.00
2018-10-03T08:22:06.423Z,7928.00
2018-10-03T08:23:06.483Z,7920.00
2018-10-03T08:24:06.542Z,7212.00
2018-10-03T08:25:06.603Z,7216.00
2018-10-03T08:26:06.663Z,7940.00
2018-10-03T08:27:06.724Z,8628.00
2018-10-03T08:28:06.784Z,8868.00
2018-10-03T08:29:06.844Z,8752.00
2018-10-03T08:30:06.938Z,8320.00
2018-10-03T08:31:06.965Z,8548.00
2018-10-03T08:32:07.024Z,9276.00
2018-10-03T08:33:07.092Z,9508.00
2018-10-03T08:34:07.147Z,8704.00
2018-10-03T08:35:07.213Z,8348.00
2018-10-03T08:36:07.267Z,7968.00
2018-10-03T08:37:07.329Z,7016.00
2018-10-03T08:38:07.389Z,6504.00
2018-10-03T08:39:07.452Z,6396.00
2018-10-03T08:40:07.511Z,6184.00
2018-10-03T08:41:07.572Z,6480.00
2018-10-03T08:42:07.633Z,6300.00
2018-10-03T08:43:07.697Z,6972.00
2018-10-03T08:44:07.754Z,7568.00
2018-10-03T08:45:07.821Z,8736.00
2018-10-03T08:46:07.877Z,9692.00
2018-10-03T08:47:07.941Z,9996.00
2018-10-03T08:48:07.998Z,10344.00
2018-10-03T08:49:08.060Z,10420.00
2018-10-03T08:50:08.121Z,11328.00
2018-10-03T08:51:08.184Z,11900.00
2018-10-03T08:52:08.243Z,12364.00
2018-10-03T08:53:08.305Z,11916.00
2018-10-03T08:54:08.366Z,12432.00
2018-10-03T08:55:08.428Z,12756.00
2018-10-03T08:56:08.488Z,12388.00
2018-10-03T08:57:08.549Z,12648.00
2018-10-03T08:58:08.708Z,12420.00
2018-10-03T08:59:08.673Z,11820.00
2018-10-03T09:00:08.734Z,11276.00
2018-10-03T09:01:08.796Z,10088.00
2018-10-03T09:02:08.857Z,9340.00
2018-10-03T09:03:08.919Z,10264.00
2018-10-03T09:04:08.981Z,9956.00
2018-10-03T09:05:09.041Z,9660.00
2018-10-03T09:06:09.103Z,9904.00
2018-10-03T09:07:09.165Z,10000.00
2018-10-03T09:08:09.230Z,10896.00
2018-10-03T09:09:09.287Z,12104.00
2018-10-03T09:10:09.351Z,10940.00
2018-10-03T09:11:09.412Z,11624.00
2018-10-03T09:12:09.473Z,10840.00
2018-10-03T09:13:09.538Z,10408.00
2018-10-03T09:14:09.595Z,10232.00
2018-10-03T09:15:09.657Z,10512.00
2018-10-03T09:16:09.719Z,10436.00
2018-10-03T09:17:09.780Z,10516.00
2018-10-03T09:18:09.840Z,11084.00
2018-10-03T09:19:09.921Z,12112.00
2018-10-03T09:20:09.965Z,13336.00
2018-10-03T09:21:10.032Z,14144.00
2018-10-03T09:22:10.088Z,13640.00
2018-10-03T09:23:10.154Z,13404.00
2018-10-03T09:24:10.223Z,12984.00
2018-10-03T09:25:10.275Z,12360.00
2018-10-03T09:26:10.338Z,12952.00
2018-10-03T09:27:10.396Z,13184.00
2018-10-03T09:28:10.463Z,14212.00
2018-10-03T09:29:10.519Z,14220.00
2018-10-03T09:30:10.582Z,13936.00
2018-10-03T09:31:10.644Z,12668.00
2018-10-03T09:32:10.708Z,12360.00
2018-10-03T09:33:10.766Z,11480.00
2018-10-03T09:34:10.828Z,11756.00
2018-10-03T09:35:10.890Z,11364.00
2018-10-03T09:36:10.951Z,12020.00
2018-10-03T09:37:11.013Z,12472.00
2018-10-03T09:38:11.075Z,12276.00
2018-10-03T09:39:11.138Z,12592.00
2018-10-03T09:40:11.197Z,12948.00
2018-10-03T09:41:11.260Z,12940.00
2018-10-03T09:42:11.324Z,13700.00
2018-10-03T09:43:11.391Z,13372.00
2018-10-03T09:44:11.473Z,13048.00
2018-10-03T09:45:11.508Z,13028.00
2018-10-03T09:46:11.569Z,13508.00
2018-10-03T09:47:11.632Z,13620.00
2018-10-03T09:48:11.693Z,14212.00
2018-10-03T09:49:11.755Z,14200.00
2018-10-03T09:50:11.818Z,14236.00
2018-10-03T09:51:11.899Z,14144.00
2018-10-03T09:52:11.941Z,13788.00
2018-10-03T09:53:12.004Z,12612.00
2018-10-03T09:54:12.067Z,12616.00
2018-10-03T09:55:12.130Z,13576.00
2018-10-03T09:56:12.192Z,13840.00
2018-10-03T09:57:12.253Z,15172.00
2018-10-03T09:58:12.314Z,14360.00
2018-10-03T09:59:12.379Z,13472.00
2018-10-03T10:00:12.474Z,12728.00
2018-10-03T10:01:12.503Z,13112.00
2018-10-03T10:02:12.563Z,12816.00
2018-10-03T10:03:12.628Z,13188.00
2018-10-03T10:04:12.688Z,13684.00
2018-10-03T10:05:12.754Z,13556.00
2018-10-03T10:06:12.813Z,13464.00
2018-10-03T10:07:12.876Z,12684.00
2018-10-03T10:08:12.946Z,11932.00
2018-10-03T10:09:13.004Z,11576.00
2018-10-03T10:10:13.116Z,10756.00
2018-10-03T10:11:13.157Z,10956.00
2018-10-03T10:12:13.187Z,11304.00
2018-10-03T10:13:13.250Z,11856.00
2018-10-03T10:14:13.313Z,11920.00
2018-10-03T10:15:13.376Z,11728.00
2018-10-03T10:16:13.437Z,11604.00
2018-10-03T10:17:13.503Z,12048.00
2018-10-03T10:18:13.563Z,12744.00
2018-10-03T10:19:13.625Z,13020.00
2018-10-03T10:20:13.687Z,12428.00
2018-10-03T10:21:13.750Z,14596.00
2018-10-03T10:22:13.811Z,16584.00
2018-10-03T10:23:13.875Z,17632.00
2018-10-03T10:24:13.940Z,16688.00
2018-10-03T10:25:14.000Z,14776.00
2018-10-03T10:26:14.061Z,13528.00
2018-10-03T10:27:14.124Z,12952.00
2018-10-03T10:28:14.188Z,12864.00
2018-10-03T10:29:14.249Z,12088.00
2018-10-03T10:30:14.312Z,11524.00
2018-10-03T10:31:14.377Z,11060.00
2018-10-03T10:32:14.536Z,10396.00
2018-10-03T10:33:14.500Z,10236.00
2018-10-03T10:34:14.562Z,10708.00
2018-10-03T10:35:14.625Z,10712.00
2018-10-03T10:36:14.687Z,10672.00
2018-10-03T10:37:15.310Z,10512.00
2018-10-03T10:38:14.814Z,10492.00
2018-10-03T10:39:14.876Z,10784.00
2018-10-03T10:40:15.008Z,10764.00
2018-10-03T10:41:15.072Z,10712.00
2018-10-03T10:42:15.064Z,11356.00
2018-10-03T10:43:15.131Z,11624.00
2018-10-03T10:44:15.187Z,12976.00
2018-10-03T10:45:15.252Z,14216.00
2018-10-03T10:46:15.312Z,14432.00
2018-10-03T10:47:15.376Z,14564.00
2018-10-03T10:48:15.441Z,14152.00
2018-10-03T10:49:15.500Z,14856.00
2018-10-03T10:50:15.627Z,13560.00
2018-10-03T10:51:15.877Z,15408.00
2018-10-03T10:52:15.688Z,19200.00
2018-10-03T10:53:15.796Z,25344.00
2018-10-03T10:54:15.816Z,24064.00
2018-10-03T10:55:15.881Z,13936.00
2018-10-03T10:56:15.938Z,23488.00
2018-10-03T10:57:16.001Z,11320.00
2018-10-03T10:58:16.068Z,17100.00
2018-10-03T10:59:16.127Z,12732.00
2018-10-03T11:00:16.190Z,12984.00
2018-10-03T11:01:16.253Z,13016.00
2018-10-03T11:02:16.316Z,13576.00
2018-10-03T11:03:16.379Z,17424.00
2018-10-03T11:04:16.443Z,12476.00
2018-10-03T11:05:16.505Z,13556.00
2018-10-03T11:06:16.651Z,26688.00
2018-10-03T11:07:16.632Z,13264.00
2018-10-03T11:08:16.695Z,13072.00
2018-10-03T11:09:16.759Z,13780.00
2018-10-03T11:10:16.819Z,13480.00
2018-10-03T11:11:16.881Z,31936.00
2018-10-03T11:12:16.945Z,32128.00
2018-10-03T11:13:17.008Z,10856.00
2018-10-03T11:14:17.070Z,11504.00
2018-10-03T11:15:17.135Z,24960.00
2018-10-03T11:16:17.196Z,13744.00
2018-10-03T11:17:17.260Z,14900.00
2018-10-03T11:18:17.329Z,17256.00
2018-10-03T11:19:17.387Z,35520.00
2018-10-03T11:20:17.448Z,18080.00
2018-10-03T11:21:17.514Z,16308.00
2018-10-03T11:22:17.574Z,17016.00
2018-10-03T11:23:17.638Z,16324.00
2018-10-03T11:24:17.885Z,15768.00
2018-10-03T11:25:17.764Z,20288.00
2018-10-03T11:26:17.827Z,31808.00
2018-10-03T11:27:17.891Z,31424.00
2018-10-03T11:28:17.952Z,29280.00
2018-10-03T11:29:18.016Z,30688.00
2018-10-03T11:30:18.080Z,31264.00
2018-10-03T11:31:18.144Z,30048.00
2018-10-03T11:32:18.266Z,29856.00
2018-10-03T11:33:18.271Z,30496.00
2018-10-03T11:34:18.385Z,25344.00
2018-10-03T11:35:18.399Z,29664.00
2018-10-03T11:36:18.463Z,28576.00
2018-10-03T11:37:18.527Z,29888.00
2018-10-03T11:38:18.606Z,28928.00
2018-10-03T11:39:18.657Z,28672.00
2018-10-03T11:40:18.721Z,28384.00
2018-10-03T11:41:19.037Z,15232.00
2018-10-03T11:42:18.854Z,13140.00
2018-10-03T11:43:18.916Z,13352.00
2018-10-03T11:44:18.981Z,14136.00
2018-10-03T11:45:19.046Z,15900.00
2018-10-03T11:46:19.112Z,19840.00
2018-10-03T11:47:19.177Z,16836.00
2018-10-03T11:48:19.242Z,16128.00
2018-10-03T11:49:19.306Z,16628.00
2018-10-03T11:50:19.371Z,18144.00
2018-10-03T11:51:19.437Z,25888.00
2018-10-03T11:52:19.498Z,31424.00
2018-10-03T11:53:19.564Z,31392.00
2018-10-03T11:54:19.629Z,32320.00
2018-10-03T11:55:19.694Z,32864.00
2018-10-03T11:56:19.759Z,31968.00
2018-10-03T11:57:19.824Z,33152.00
2018-10-03T11:58:19.893Z,35744.00
2018-10-03T11:59:19.985Z,35456.00
2018-10-03T12:00:20.028Z,37248.00
2018-10-03T12:01:20.084Z,36576.00
2018-10-03T12:02:20.151Z,39008.00
2018-10-03T12:03:20.332Z,36896.00
2018-10-03T12:04:20.277Z,35072.00
2018-10-03T12:05:20.343Z,36448.00
2018-10-03T12:06:20.428Z,35936.00
2018-10-03T12:07:20.474Z,40864.00
2018-10-03T12:08:20.538Z,36512.00
2018-10-03T12:09:20.627Z,40640.00
2018-10-03T12:10:20.697Z,34912.00
2018-10-03T12:11:20.737Z,36256.00
2018-10-03T12:12:20.802Z,16508.00
2018-10-03T12:13:20.871Z,31264.00
2018-10-03T12:14:20.933Z,12916.00
2018-10-03T12:15:20.999Z,12008.00
2018-10-03T12:16:21.067Z,11924.00
2018-10-03T12:17:21.130Z,12716.00
2018-10-03T12:18:21.196Z,22560.00
2018-10-03T12:19:21.260Z,36928.00
2018-10-03T12:20:21.324Z,13996.00
2018-10-03T12:21:21.390Z,13188.00
2018-10-03T12:22:21.455Z,13316.00
2018-10-03T12:23:21.519Z,33920.00
2018-10-03T12:24:21.584Z,14200.00
2018-10-03T12:25:21.738Z,14500.00
2018-10-03T12:26:21.720Z,15928.00
2018-10-03T12:27:21.777Z,13816.00
2018-10-03T12:28:21.844Z,13264.00
2018-10-03T12:29:21.904Z,18464.00
2018-10-03T12:30:21.968Z,38720.00
2018-10-03T12:31:22.034Z,16304.00